createdAt,value
2022-10-17T00:02:14.435Z,18.64
2022-10-17T00:04:41.113Z,18.63
2022-10-17T00:07:07.812Z,18.64
2022-10-17T00:09:34.501Z,18.51
2022-10-17T00:12:02.825Z,18.49
2022-10-17T00:14:29.524Z,18.43
2022-10-17T00:16:56.157Z,18.54
2022-10-17T00:19:22.846Z,18.65
2022-10-17T00:21:49.592Z,18.70
2022-10-17T00:24:16.369Z,18.62
2022-10-17T00:26:43.078Z,18.47
2022-10-17T00:29:09.825Z,18.69
2022-10-17T00:31:36.569Z,18.27
2022-10-17T00:34:03.369Z,18.38
2022-10-17T00:36:30.169Z,18.38
2022-10-17T00:38:58.718Z,18.00
2022-10-17T00:41:29.341Z,18.11
2022-10-17T00:44:05.780Z,18.49
2022-10-17T00:46:37.700Z,18.59
2022-10-17T00:49:10.266Z,18.62
2022-10-17T00:51:52.217Z,18.69
2022-10-17T00:54:22.687Z,18.68
2022-10-17T00:56:49.782Z,18.77
2022-10-17T00:59:17.674Z,18.70
2022-10-17T01:01:51.251Z,18.75
2022-10-17T01:04:18.470Z,18.80
2022-10-17T01:06:45.532Z,18.80
2022-10-17T01:09:12.359Z,18.84
2022-10-17T01:11:46.872Z,18.85
2022-10-17T01:14:20.841Z,18.88
2022-10-17T01:17:06.205Z,18.86
2022-10-17T01:19:43.902Z,18.79
2022-10-17T01:22:34.449Z,18.81
2022-10-17T01:25:24.484Z,18.71
2022-10-17T01:28:23.325Z,18.54
2022-10-17T01:30:57.249Z,18.70
2022-10-17T01:33:37.587Z,18.74
2022-10-17T01:36:22.667Z,18.77
2022-10-17T01:38:53.778Z,18.68
2022-10-17T01:41:42.256Z,18.46
2022-10-17T01:44:12.950Z,18.56
2022-10-17T01:46:43.426Z,18.49
2022-10-17T01:49:11.420Z,18.54
2022-10-17T01:51:49.827Z,18.40
2022-10-17T01:54:22.488Z,18.38
2022-10-17T01:56:52.912Z,18.49
2022-10-17T01:59:42.350Z,18.66
2022-10-17T02:02:10.511Z,18.70
2022-10-17T02:04:37.624Z,18.60
2022-10-17T02:07:12.450Z,18.73
2022-10-17T02:09:39.621Z,18.75
2022-10-17T02:12:24.997Z,18.79
2022-10-17T02:15:19.976Z,18.90
2022-10-17T02:17:46.771Z,18.89
2022-10-17T02:20:19.515Z,18.98
2022-10-17T02:22:55.973Z,18.99
2022-10-17T02:25:42.232Z,18.94
2022-10-17T02:28:17.932Z,19.07
2022-10-17T02:31:01.309Z,19.14
2022-10-17T02:33:36.110Z,19.05
2022-10-17T02:36:11.145Z,19.04
2022-10-17T02:38:39.092Z,19.12
2022-10-17T02:41:10.344Z,19.15
2022-10-17T02:43:38.022Z,19.12
2022-10-17T02:46:06.058Z,19.19
2022-10-17T02:48:40.479Z,19.19
2022-10-17T02:51:16.536Z,19.20
2022-10-17T02:53:55.555Z,19.20
2022-10-17T02:56:22.726Z,19.19
2022-10-17T02:58:53.942Z,19.04
2022-10-17T03:01:20.819Z,18.96
2022-10-17T03:03:47.632Z,19.06
2022-10-17T03:06:14.614Z,18.94
2022-10-17T03:08:41.396Z,18.67
2022-10-17T03:11:08.191Z,18.86
2022-10-17T03:13:37.550Z,18.93
2022-10-17T03:16:06.644Z,18.92
2022-10-17T03:18:33.522Z,19.06
2022-10-17T03:21:02.315Z,19.06
2022-10-17T03:23:29.061Z,18.81
2022-10-17T03:25:55.703Z,19.10
2022-10-17T03:28:22.795Z,19.15
2022-10-17T03:30:49.543Z,19.10
2022-10-17T03:33:16.297Z,19.00
2022-10-17T03:35:43.050Z,19.08
2022-10-17T03:38:10.413Z,19.10
2022-10-17T03:40:37.527Z,18.92
2022-10-17T03:43:04.789Z,19.05
2022-10-17T03:45:32.951Z,19.15
2022-10-17T03:48:00.129Z,19.14
2022-10-17T03:50:26.949Z,19.12
2022-10-17T03:52:53.808Z,19.09
2022-10-17T03:55:20.568Z,19.14
2022-10-17T03:57:47.362Z,19.04
2022-10-17T04:00:15.907Z,19.12
2022-10-17T04:02:42.618Z,18.99
2022-10-17T04:05:15.425Z,19.03
2022-10-17T04:07:42.172Z,19.06
2022-10-17T04:10:11.001Z,18.97
2022-10-17T04:12:38.469Z,19.00
2022-10-17T04:15:06.561Z,19.12
2022-10-17T04:17:37.306Z,19.22
2022-10-17T04:20:06.990Z,19.14
2022-10-17T04:22:34.543Z,19.15
2022-10-17T04:25:01.576Z,19.22
2022-10-17T04:27:34.086Z,19.32
2022-10-17T04:30:01.071Z,19.20
2022-10-17T04:32:29.177Z,19.20
2022-10-17T04:35:19.911Z,19.11
2022-10-17T04:37:51.818Z,19.33
2022-10-17T04:40:20.933Z,19.27
2022-10-17T04:42:48.250Z,19.40
2022-10-17T04:45:19.454Z,19.38
2022-10-17T04:47:48.091Z,19.32
2022-10-17T04:50:14.958Z,19.38
2022-10-17T04:52:41.755Z,19.39
2022-10-17T04:55:09.139Z,19.17
2022-10-17T04:57:36.143Z,19.31
2022-10-17T05:03:04.061Z,19.35
2022-10-17T05:05:31.172Z,19.19
2022-10-17T05:07:57.950Z,19.13
2022-10-17T05:10:28.774Z,19.39
2022-10-17T05:12:55.654Z,19.43
2022-10-17T05:15:25.920Z,19.27
2022-10-17T05:17:56.201Z,19.40
2022-10-17T05:20:24.472Z,19.18
2022-10-17T05:22:51.383Z,19.42
2022-10-17T05:25:18.493Z,19.37
2022-10-17T05:27:45.177Z,19.23
2022-10-17T05:30:12.172Z,19.19
2022-10-17T05:32:40.705Z,19.06
2022-10-17T05:35:08.300Z,19.03
2022-10-17T05:37:36.607Z,19.07
2022-10-17T05:40:04.810Z,18.94
2022-10-17T05:42:32.336Z,19.05
2022-10-17T05:44:59.601Z,19.43
2022-10-17T05:47:26.936Z,19.12
2022-10-17T05:49:53.831Z,19.18
2022-10-17T05:52:26.964Z,19.30
2022-10-17T05:55:03.570Z,19.48
2022-10-17T05:57:31.472Z,19.57
2022-10-17T05:59:58.583Z,19.43
2022-10-17T06:02:25.480Z,19.53
2022-10-17T06:04:52.242Z,19.57
2022-10-17T06:07:21.054Z,19.63
2022-10-17T06:09:48.556Z,19.46
2022-10-17T06:12:15.330Z,19.02
2022-10-17T06:14:43.054Z,19.34
2022-10-17T06:17:15.788Z,19.41
2022-10-17T06:19:44.910Z,19.32
2022-10-17T06:22:13.689Z,19.40
2022-10-17T06:24:42.410Z,19.39
2022-10-17T06:27:12.086Z,19.37
2022-10-17T06:29:40.790Z,19.39
2022-10-17T06:32:09.974Z,19.58
2022-10-17T06:34:40.853Z,19.64
2022-10-17T06:37:07.617Z,19.37
2022-10-17T06:39:36.175Z,19.39
2022-10-17T06:42:07.111Z,19.23
2022-10-17T06:45:06.773Z,19.28
2022-10-17T06:47:42.512Z,19.01
2022-10-17T06:50:26.651Z,19.23
2022-10-17T06:53:19.690Z,19.24
2022-10-17T06:55:54.019Z,19.26
2022-10-17T06:58:30.391Z,19.11
2022-10-17T07:01:13.097Z,19.38
2022-10-17T07:03:41.103Z,19.72
2022-10-17T07:06:08.376Z,19.58
2022-10-17T07:08:35.374Z,19.68
2022-10-17T07:11:14.956Z,19.43
2022-10-17T07:13:43.134Z,19.65
2022-10-17T07:16:10.838Z,19.67
2022-10-17T07:18:40.292Z,20.23
2022-10-17T07:21:08.795Z,19.73
2022-10-17T07:23:37.546Z,20.04
2022-10-17T07:26:07.588Z,19.96
2022-10-17T07:28:40.508Z,20.22
2022-10-17T07:31:24.774Z,19.75
2022-10-17T07:33:51.681Z,19.78
2022-10-17T07:36:18.675Z,20.01
2022-10-17T07:38:46.653Z,20.31
2022-10-17T07:41:17.790Z,20.17
2022-10-17T07:43:53.331Z,20.38
2022-10-17T07:46:24.561Z,19.91
2022-10-17T07:48:55.675Z,20.37
2022-10-17T07:51:22.659Z,19.97
2022-10-17T07:53:49.602Z,20.07
2022-10-17T07:56:19.877Z,20.17
2022-10-17T07:58:53.051Z,20.21
2022-10-17T08:01:23.601Z,20.48
2022-10-17T08:04:06.936Z,20.29
2022-10-17T08:06:39.097Z,20.38
2022-10-17T08:09:11.099Z,20.37
2022-10-17T08:11:43.925Z,20.60
2022-10-17T08:14:11.884Z,20.74
2022-10-17T08:16:39.165Z,20.69
2022-10-17T08:21:40.889Z,20.71
2022-10-17T08:24:09.729Z,20.58
2022-10-17T08:26:40.638Z,20.45
2022-10-17T08:29:15.277Z,20.68
2022-10-17T08:32:01.198Z,20.08
2022-10-17T08:34:29.275Z,20.39
2022-10-17T08:41:53.056Z,20.25
2022-10-17T08:44:51.751Z,20.45
2022-10-17T08:47:43.354Z,20.39
2022-10-17T08:50:38.631Z,20.69
2022-10-17T08:56:48.080Z,20.26
2022-10-17T08:59:29.615Z,20.33
2022-10-17T09:02:20.912Z,20.44
2022-10-17T09:05:26.700Z,20.29
2022-10-17T09:07:56.839Z,20.53
2022-10-17T09:10:39.027Z,20.70
2022-10-17T09:13:43.425Z,20.66
2022-10-17T09:16:48.885Z,20.56
2022-10-17T09:19:21.307Z,20.46
2022-10-17T09:22:10.046Z,20.65
2022-10-17T09:24:44.728Z,20.59
2022-10-17T09:27:24.353Z,20.35
2022-10-17T09:29:55.756Z,20.41
2022-10-17T09:32:24.606Z,20.56
2022-10-17T09:34:53.643Z,20.58
2022-10-17T09:37:24.535Z,20.53
2022-10-17T09:39:54.518Z,20.44
2022-10-17T09:42:25.361Z,20.62
2022-10-17T09:45:19.653Z,20.50
2022-10-17T09:47:52.151Z,20.40
2022-10-17T09:50:33.292Z,20.64
2022-10-17T09:53:33.144Z,20.72
2022-10-17T09:56:03.634Z,20.61
2022-10-17T09:58:48.517Z,20.72
2022-10-17T10:01:29.178Z,20.80
2022-10-17T10:04:08.751Z,20.79
2022-10-17T10:06:37.794Z,20.88
2022-10-17T10:09:07.363Z,20.96
2022-10-17T10:11:52.444Z,20.87
2022-10-17T10:14:35.837Z,20.88
2022-10-17T10:17:05.768Z,20.95
2022-10-17T10:19:37.638Z,20.73
2022-10-17T10:22:09.284Z,20.89
2022-10-17T10:24:36.367Z,20.94
2022-10-17T10:27:04.028Z,20.91
2022-10-17T10:32:33.974Z,21.05
2022-10-17T10:35:23.654Z,21.06
2022-10-17T10:37:53.885Z,21.02
2022-10-17T10:40:37.802Z,21.10
2022-10-17T10:43:06.528Z,21.15
2022-10-17T10:45:47.650Z,21.15
2022-10-17T10:48:28.232Z,21.20
2022-10-17T10:51:41.811Z,21.02
2022-10-17T10:54:28.784Z,21.05
2022-10-17T10:57:01.146Z,21.01
2022-10-17T10:59:41.525Z,20.94
2022-10-17T11:02:23.730Z,20.92
2022-10-17T11:04:57.533Z,20.98
2022-10-17T11:07:30.660Z,20.99
2022-10-17T11:10:14.477Z,21.07
2022-10-17T11:12:57.539Z,21.13
2022-10-17T11:15:28.876Z,21.10
2022-10-17T11:18:00.783Z,21.01
2022-10-17T11:20:34.775Z,21.12
2022-10-17T11:23:34.529Z,21.17
2022-10-17T11:26:05.669Z,21.25
2022-10-17T11:28:32.805Z,21.06
2022-10-17T11:31:17.959Z,21.15
2022-10-17T11:33:58.163Z,20.87
2022-10-17T11:36:34.050Z,20.79
2022-10-17T11:39:14.922Z,20.10
2022-10-17T11:41:43.347Z,20.46
2022-10-17T11:44:22.229Z,20.38
2022-10-17T11:46:55.868Z,20.10
2022-10-17T11:52:54.885Z,19.82
2022-10-17T11:55:22.533Z,20.21
2022-10-17T11:58:12.832Z,20.38
2022-10-17T12:00:57.781Z,20.63
2022-10-17T12:03:55.310Z,20.72
2022-10-17T12:06:49.669Z,20.69
2022-10-17T12:09:43.297Z,20.94
2022-10-17T12:12:10.176Z,20.91
2022-10-17T12:14:45.838Z,20.92
2022-10-17T12:17:38.967Z,21.27
2022-10-17T12:20:23.992Z,21.27
2022-10-17T12:22:52.317Z,21.38
2022-10-17T12:25:32.083Z,21.05
2022-10-17T12:28:13.253Z,21.39
2022-10-17T12:31:33.618Z,20.73
2022-10-17T12:34:16.403Z,21.33
2022-10-17T12:36:43.632Z,21.32
2022-10-17T12:39:14.522Z,21.35
2022-10-17T12:41:41.403Z,21.16
2022-10-17T12:44:14.416Z,21.12
2022-10-17T12:46:49.378Z,21.36
2022-10-17T12:49:41.052Z,21.55
2022-10-17T12:52:19.679Z,21.56
2022-10-17T12:55:07.168Z,21.62
2022-10-17T12:57:56.675Z,21.58
2022-10-17T13:00:37.998Z,21.56
2022-10-17T13:03:13.507Z,21.55
2022-10-17T13:05:44.518Z,21.21
2022-10-17T13:08:18.904Z,20.89
2022-10-17T13:10:49.102Z,21.39
2022-10-17T13:13:48.877Z,21.08
2022-10-17T13:16:33.357Z,21.37
2022-10-17T13:19:01.810Z,21.53
2022-10-17T13:21:28.950Z,21.65
2022-10-17T13:23:56.021Z,21.40
2022-10-17T13:26:28.771Z,21.13
2022-10-17T13:29:07.171Z,20.94
2022-10-17T13:31:44.703Z,21.18
2022-10-17T13:34:23.449Z,21.02
2022-10-17T13:37:02.661Z,21.26
2022-10-17T13:39:52.404Z,21.41
2022-10-17T13:42:29.938Z,20.85
2022-10-17T13:44:58.087Z,21.25
2022-10-17T13:47:27.923Z,21.44
2022-10-17T13:49:55.769Z,21.14
2022-10-17T13:52:26.266Z,20.70
2022-10-17T13:54:53.927Z,21.14
2022-10-17T13:57:29.400Z,21.42
2022-10-17T14:00:01.635Z,21.46
2022-10-17T14:02:30.405Z,21.24
2022-10-17T14:05:19.956Z,21.24
2022-10-17T14:08:22.712Z,21.21
2022-10-17T14:10:51.423Z,21.23
2022-10-17T14:13:26.915Z,21.43
2022-10-17T14:16:10.357Z,21.40
2022-10-17T14:18:37.805Z,21.49
2022-10-17T14:24:13.127Z,20.93
2022-10-17T14:26:58.976Z,20.81
2022-10-17T14:29:31.704Z,21.19
2022-10-17T14:32:08.635Z,21.33
2022-10-17T14:34:40.883Z,20.77
2022-10-17T14:37:32.586Z,21.17
2022-10-17T14:40:00.834Z,21.32
2022-10-17T14:42:27.604Z,21.33
2022-10-17T14:44:56.706Z,21.43
2022-10-17T14:47:42.830Z,21.26
2022-10-17T14:50:13.365Z,21.23
2022-10-17T14:52:40.911Z,21.36
2022-10-17T14:55:23.338Z,21.43
2022-10-17T14:57:50.499Z,21.57
2022-10-17T15:00:19.355Z,21.43
2022-10-17T15:02:48.184Z,21.52
2022-10-17T15:05:15.672Z,21.60
2022-10-17T15:07:44.465Z,21.75
2022-10-17T15:10:36.021Z,21.60
2022-10-17T15:13:27.276Z,21.45
2022-10-17T15:15:52.234Z,21.43
2022-10-17T15:18:19.505Z,21.47
2022-10-17T15:20:46.244Z,21.38
2022-10-17T15:23:12.952Z,21.00
2022-10-17T15:25:43.923Z,21.31
2022-10-17T15:28:15.072Z,21.29
2022-10-17T15:30:42.164Z,21.43
2022-10-17T15:33:08.825Z,21.19
2022-10-17T15:35:36.748Z,21.51
2022-10-17T15:38:05.674Z,21.41
2022-10-17T15:40:32.421Z,21.55
2022-10-17T15:42:59.483Z,21.43
2022-10-17T15:45:26.241Z,21.43
2022-10-17T15:47:59.295Z,21.44
2022-10-17T15:50:30.582Z,21.32
2022-10-17T15:53:00.450Z,21.37
2022-10-17T15:55:28.450Z,21.34
2022-10-17T15:57:55.523Z,21.23
2022-10-17T16:00:24.173Z,21.33
2022-10-17T16:02:51.553Z,21.34
2022-10-17T16:05:29.259Z,21.36
2022-10-17T16:07:57.881Z,21.40
2022-10-17T16:10:28.196Z,21.34
2022-10-17T16:12:55.249Z,21.35
2022-10-17T16:15:24.799Z,21.35
2022-10-17T16:17:57.896Z,21.38
2022-10-17T16:20:26.397Z,21.37
2022-10-17T16:22:59.534Z,21.32
2022-10-17T16:25:29.566Z,21.29
2022-10-17T16:27:59.690Z,21.31
2022-10-17T16:30:30.412Z,21.26
2022-10-17T16:32:57.244Z,21.13
2022-10-17T16:35:30.640Z,21.14
2022-10-17T16:38:00.365Z,21.12
2022-10-17T16:40:27.341Z,21.11
2022-10-17T16:42:54.219Z,21.10
2022-10-17T16:45:22.389Z,21.11
2022-10-17T16:47:49.731Z,20.98
2022-10-17T16:50:16.516Z,21.08
2022-10-17T16:52:43.769Z,21.06
2022-10-17T16:55:10.901Z,20.91
2022-10-17T16:57:38.081Z,20.81
2022-10-17T17:00:07.274Z,20.53
2022-10-17T17:02:38.321Z,20.39
2022-10-17T17:05:05.624Z,20.37
2022-10-17T17:07:33.661Z,20.12
2022-10-17T17:10:00.537Z,20.35
2022-10-17T17:12:27.431Z,20.52
2022-10-17T17:14:54.271Z,20.21
2022-10-17T17:17:30.674Z,20.39
2022-10-17T17:20:08.256Z,20.05
2022-10-17T17:22:35.222Z,20.03
2022-10-17T17:25:02.036Z,20.31
2022-10-17T17:27:29.570Z,20.00
2022-10-17T17:29:56.723Z,20.19
2022-10-17T17:32:23.881Z,20.19
2022-10-17T17:34:52.127Z,20.43
2022-10-17T17:37:19.263Z,20.36
2022-10-17T17:39:46.043Z,19.88
2022-10-17T17:42:12.840Z,19.70
2022-10-17T17:50:07.277Z,19.81
2022-10-17T17:52:49.368Z,20.11
2022-10-17T17:55:17.257Z,20.15
2022-10-17T17:57:43.946Z,20.09
2022-10-17T18:00:11.507Z,19.84
2022-10-17T18:02:42.174Z,20.23
2022-10-17T18:05:17.149Z,20.02
2022-10-17T18:07:46.109Z,19.91
2022-10-17T18:12:42.860Z,20.05
2022-10-17T18:18:03.571Z,20.13
2022-10-17T18:20:30.307Z,20.09
2022-10-17T18:23:00.539Z,19.83
2022-10-17T18:25:30.306Z,20.11
2022-10-17T18:27:56.962Z,19.97
2022-10-17T18:30:25.932Z,19.93
2022-10-17T18:32:57.226Z,19.90
2022-10-17T18:35:24.327Z,19.88
2022-10-17T18:37:51.394Z,19.70
2022-10-17T18:40:18.299Z,19.80
2022-10-17T18:42:50.617Z,19.93
2022-10-17T18:45:17.755Z,19.74
2022-10-17T18:47:47.330Z,19.67
2022-10-17T18:50:21.000Z,19.56
2022-10-17T18:52:48.723Z,19.75
2022-10-17T18:55:16.656Z,19.65
2022-10-17T18:57:43.590Z,19.72
2022-10-17T19:00:12.006Z,19.77
2022-10-17T19:02:40.154Z,20.02
2022-10-17T19:05:13.886Z,20.06
2022-10-17T19:07:41.471Z,19.91
2022-10-17T19:10:08.713Z,20.01
2022-10-17T19:12:36.561Z,20.03
2022-10-17T19:15:03.764Z,19.88
2022-10-17T19:17:30.935Z,19.90
2022-10-17T19:19:58.095Z,20.15
2022-10-17T19:22:25.199Z,20.23
2022-10-17T19:24:52.086Z,20.19
2022-10-17T19:27:20.881Z,20.12
2022-10-17T19:29:47.730Z,20.10
2022-10-17T19:32:17.905Z,20.07
2022-10-17T19:34:47.835Z,20.08
2022-10-17T19:37:14.819Z,20.21
2022-10-17T19:39:41.698Z,20.09
2022-10-17T19:42:08.483Z,20.18
2022-10-17T19:44:35.627Z,20.23
2022-10-17T19:47:05.109Z,20.22
2022-10-17T19:49:31.966Z,20.32
2022-10-17T19:51:59.246Z,20.26
2022-10-17T19:54:26.056Z,20.27
2022-10-17T19:56:55.205Z,20.27
2022-10-17T20:01:52.572Z,20.22
2022-10-17T20:04:22.549Z,20.05
2022-10-17T20:06:49.646Z,20.10
2022-10-17T20:09:17.349Z,20.20
2022-10-17T20:11:44.951Z,20.12
2022-10-17T20:14:12.233Z,20.14
2022-10-17T20:16:39.074Z,20.14
2022-10-17T20:19:10.671Z,20.29
2022-10-17T20:21:39.842Z,20.07
2022-10-17T20:24:13.395Z,20.25
2022-10-17T20:26:43.913Z,20.19
2022-10-17T20:29:16.647Z,20.12
2022-10-17T20:31:45.519Z,20.13
2022-10-17T20:34:25.765Z,20.05
2022-10-17T20:37:04.307Z,19.99
2022-10-17T20:39:35.863Z,20.14
2022-10-17T20:42:13.707Z,20.15
2022-10-17T20:44:48.298Z,20.07
2022-10-17T20:47:26.478Z,20.06
2022-10-17T20:50:25.467Z,20.13
2022-10-17T20:53:01.030Z,20.06
2022-10-17T20:55:38.474Z,20.14
2022-10-17T20:58:05.348Z,20.08
2022-10-17T21:00:32.598Z,20.00
2022-10-17T21:02:59.576Z,19.97
2022-10-17T21:05:26.716Z,20.00
2022-10-17T21:07:53.833Z,19.93
2022-10-17T21:10:35.332Z,19.92
2022-10-17T21:13:02.774Z,20.07
2022-10-17T21:18:12.279Z,20.12
2022-10-17T21:20:39.724Z,20.11
2022-10-17T21:23:07.024Z,20.10
2022-10-17T21:25:36.288Z,19.94
2022-10-17T21:28:03.769Z,19.94
2022-10-17T21:30:30.726Z,20.06
2022-10-17T21:32:58.341Z,20.14
2022-10-17T21:35:25.388Z,20.11
2022-10-17T21:37:56.800Z,20.21
2022-10-17T21:40:23.620Z,20.26
2022-10-17T21:42:50.534Z,20.28
2022-10-17T21:45:25.309Z,20.26
2022-10-17T21:48:11.809Z,20.32
2022-10-17T21:50:41.480Z,20.22
2022-10-17T21:53:15.122Z,20.12
2022-10-17T21:55:45.591Z,20.02
2022-10-17T21:58:12.466Z,19.99
2022-10-17T22:00:39.413Z,19.70
2022-10-17T22:03:07.525Z,19.97
2022-10-17T22:05:34.373Z,19.80
2022-10-17T22:08:08.568Z,19.78
2022-10-17T22:10:39.633Z,20.00
2022-10-17T22:13:06.751Z,20.00
2022-10-17T22:15:42.769Z,19.99
2022-10-17T22:18:09.767Z,20.05
2022-10-17T22:20:39.567Z,20.04
2022-10-17T22:23:10.130Z,20.13
2022-10-17T22:25:55.523Z,20.15
2022-10-17T22:28:22.889Z,20.06
2022-10-17T22:30:49.839Z,20.12
2022-10-17T22:33:16.925Z,20.10
2022-10-17T22:35:46.692Z,20.00
2022-10-17T22:38:14.212Z,20.09
2022-10-17T22:40:44.481Z,20.09
2022-10-17T22:43:12.655Z,20.12
2022-10-17T22:45:40.196Z,20.03
2022-10-17T22:48:07.767Z,20.09
2022-10-17T22:50:34.848Z,20.01
2022-10-17T22:53:01.659Z,20.03
2022-10-17T22:55:28.400Z,19.99
2022-10-17T22:57:55.262Z,19.98
2022-10-17T23:00:23.080Z,19.97
2022-10-17T23:02:53.979Z,20.01
2022-10-17T23:05:20.780Z,19.89
2022-10-17T23:07:47.451Z,19.91
2022-10-17T23:10:14.298Z,19.91
2022-10-17T23:12:41.319Z,19.91
2022-10-17T23:15:08.775Z,19.87
2022-10-17T23:17:35.785Z,19.87
2022-10-17T23:20:03.503Z,19.88
2022-10-17T23:22:35.484Z,19.88
2022-10-17T23:25:02.648Z,19.87
2022-10-17T23:29:57.228Z,19.86
2022-10-17T23:32:23.848Z,19.85
2022-10-17T23:34:50.606Z,19.84
2022-10-17T23:37:17.542Z,19.82
2022-10-17T23:39:44.304Z,19.99
2022-10-17T23:42:11.037Z,20.03
2022-10-17T23:44:40.554Z,19.98
2022-10-17T23:47:07.281Z,19.99
2022-10-17T23:49:34.163Z,20.02
2022-10-17T23:52:00.876Z,19.98
2022-10-17T23:54:27.611Z,19.99
2022-10-17T23:56:54.331Z,19.98
2022-10-17T23:59:21.106Z,19.97
